Time;durP1;ratioP1;P1;durP2;ratioP2;P2;SDS_P1;SDS_P2;PMS_P1;PMS_P2;Temp;Humidity;BMP_temperature;BMP_pressure;BME280_temperature;BME280_humidity;BME280_pressure;Samples;Min_cycle;Max_cycle;Signal;HPM_P1;HPM_P2
2023/11/17 00:01:33;;;;;;;;;;;6.90;90.90;;;;;;5109236;28;19912;-77
2023/11/17 00:03:59;;;;;;;;;;;7.10;90.90;;;;;;5109273;28;19912;-77
2023/11/17 00:06:25;;;;;;;;;;;7.20;90.90;;;;;;5108980;28;19934;-77
2023/11/17 00:08:51;;;;;;;;;;;7.30;90.90;;;;;;5108211;28;19920;-76
2023/11/17 00:11:17;;;;;;;;;;;7.40;90.90;;;;;;5108985;28;19911;-76
2023/11/17 00:13:43;;;;;;;;;;;7.50;90.90;;;;;;5109015;28;20019;-76
2023/11/17 00:16:09;;;;;;;;;;;7.60;90.80;;;;;;5108927;28;20328;-77
2023/11/17 00:18:36;;;;;;;;;;;7.70;90.80;;;;;;5108655;28;19944;-77
2023/11/17 00:21:03;;;;;;;;;;;7.70;90.80;;;;;;5108798;28;19965;-77
2023/11/17 00:23:29;;;;;;;;;;;7.70;90.70;;;;;;5108812;28;20371;-77
2023/11/17 00:25:55;;;;;;;;;;;7.70;90.60;;;;;;5090616;28;19919;-77
2023/11/17 00:28:24;;;;;;;;;;;7.60;90.60;;;;;;5108821;28;19912;-77
2023/11/17 00:30:50;;;;;;;;;;;7.50;90.60;;;;;;5108751;28;19911;-77
2023/11/17 00:33:15;;;;;;;;;;;7.50;90.70;;;;;;5108766;28;20341;-76
2023/11/17 00:35:41;;;;;;;;;;;7.40;90.70;;;;;;5108637;28;20010;-76
2023/11/17 00:38:07;;;;;;;;;;;7.40;90.70;;;;;;5108409;28;19926;-77
2023/11/17 00:40:33;;;;;;;;;;;7.30;90.70;;;;;;5108673;28;19916;-76
2023/11/17 00:43:02;;;;;;;;;;;7.30;90.70;;;;;;5108660;28;19908;-77
2023/11/17 00:45:27;;;;;;;;;;;7.30;90.80;;;;;;5090397;28;20279;-77
2023/11/17 00:47:53;;;;;;;;;;;7.30;90.80;;;;;;5090054;28;20014;-77
2023/11/17 00:50:18;;;;;;;;;;;7.30;90.80;;;;;;5090086;28;19971;-76
2023/11/17 00:52:44;;;;;;;;;;;7.20;90.70;;;;;;5108456;28;20280;-77
2023/11/17 00:55:12;;;;;;;;;;;7.30;90.70;;;;;;5090155;28;19908;-77
2023/11/17 00:57:41;;;;;;;;;;;7.20;90.70;;;;;;5108256;28;19965;-77
2023/11/17 01:00:09;;;;;;;;;;;7.10;90.70;;;;;;5090415;28;20402;-77
2023/11/17 01:02:34;;;;;;;;;;;7.10;90.80;;;;;;5107987;28;19912;-74
2023/11/17 01:05:00;;;;;;;;;;;7.10;90.80;;;;;;5108191;28;20193;-77
2023/11/17 01:07:26;;;;;;;;;;;7.10;90.80;;;;;;5108300;28;20048;-77
2023/11/17 01:09:51;;;;;;;;;;;7.20;90.90;;;;;;5108102;28;20023;-77
2023/11/17 01:12:17;;;;;;;;;;;7.20;90.90;;;;;;5108295;28;20444;-77
2023/11/17 01:14:42;;;;;;;;;;;7.20;90.90;;;;;;5090114;28;19958;-77
2023/11/17 01:17:11;;;;;;;;;;;7.20;90.90;;;;;;5108137;28;19919;-76
2023/11/17 01:19:36;;;;;;;;;;;7.20;90.90;;;;;;5110973;28;20002;-77
2023/11/17 01:22:03;;;;;;;;;;;7.20;90.80;;;;;;5112442;28;19958;-77
2023/11/17 01:24:28;;;;;;;;;;;7.30;90.80;;;;;;5112396;28;19915;-77
2023/11/17 01:26:54;;;;;;;;;;;7.30;90.80;;;;;;5112271;28;19918;-77
2023/11/17 01:29:20;;;;;;;;;;;7.30;90.80;;;;;;5112153;28;19918;-76
2023/11/17 01:31:45;;;;;;;;;;;7.30;90.80;;;;;;5112277;28;20001;-77
2023/11/17 01:34:12;;;;;;;;;;;7.40;90.90;;;;;;5112100;28;19919;-77
2023/11/17 01:36:38;;;;;;;;;;;7.50;90.90;;;;;;5112094;28;20007;-77
2023/11/17 01:39:04;;;;;;;;;;;7.60;90.90;;;;;;5112212;28;20018;-77
2023/11/17 01:41:30;;;;;;;;;;;7.60;90.90;;;;;;5112058;28;19916;-77
2023/11/17 01:43:57;;;;;;;;;;;7.70;90.90;;;;;;5093578;28;20025;-77
2023/11/17 01:46:24;;;;;;;;;;;7.80;90.90;;;;;;5111930;28;20245;-77
2023/11/17 01:48:49;;;;;;;;;;;7.80;90.90;;;;;;5111764;28;19964;-77
2023/11/17 01:51:15;;;;;;;;;;;7.90;90.90;;;;;;5093779;28;20384;-76
2023/11/17 01:53:41;;;;;;;;;;;7.80;90.80;;;;;;5111787;28;19911;-77
2023/11/17 01:56:07;;;;;;;;;;;7.90;90.80;;;;;;5111755;28;19908;-77
2023/11/17 01:58:33;;;;;;;;;;;7.90;90.80;;;;;;5111500;28;19916;-77
2023/11/17 02:01:00;;;;;;;;;;;7.90;90.80;;;;;;5111599;28;19908;-76
2023/11/17 02:03:26;;;;;;;;;;;7.90;90.80;;;;;;5111605;28;19912;-77
2023/11/17 02:05:56;;;;;;;;;;;7.90;90.80;;;;;;5111499;28;20355;-77
2023/11/17 02:08:46;;;;;;;;;;;7.90;90.80;;;;;;5111416;28;19927;-77
2023/11/17 02:11:26;;;;;;;;;;;7.90;90.80;;;;;;5111447;28;19907;-76
2023/11/17 02:14:00;;;;;;;;;;;7.90;90.80;;;;;;5111378;28;19908;-77
2023/11/17 02:16:25;;;;;;;;;;;7.90;90.80;;;;;;5111673;28;20267;-76
2023/11/17 02:18:54;;;;;;;;;;;7.90;90.80;;;;;;5075874;28;19916;-76
2023/11/17 02:21:28;;;;;;;;;;;7.90;90.90;;;;;;5111179;28;20309;-76
2023/11/17 02:23:55;;;;;;;;;;;7.90;90.80;;;;;;5111235;28;19947;-77
2023/11/17 02:26:31;;;;;;;;;;;7.90;90.80;;;;;;5111132;28;19908;-76
2023/11/17 02:28:59;;;;;;;;;;;7.90;90.80;;;;;;5111090;28;19914;-76
2023/11/17 02:31:35;;;;;;;;;;;7.90;91.00;;;;;;5110485;28;19965;-76
2023/11/17 02:34:05;;;;;;;;;;;7.80;90.70;;;;;;5094101;28;19912;-76
2023/11/17 02:36:32;;;;;;;;;;;7.70;90.70;;;;;;5092662;28;19915;-77
2023/11/17 02:39:05;;;;;;;;;;;7.70;90.80;;;;;;5110836;28;20010;-77
2023/11/17 02:41:37;;;;;;;;;;;7.70;90.80;;;;;;5110920;28;19907;-76
2023/11/17 02:44:03;;;;;;;;;;;7.70;90.80;;;;;;5110831;28;19957;-77
2023/11/17 02:46:33;;;;;;;;;;;7.70;90.80;;;;;;5110832;28;20401;-77
2023/11/17 02:49:03;;;;;;;;;;;7.70;90.70;;;;;;5110713;28;19943;-77
2023/11/17 02:51:37;;;;;;;;;;;7.60;90.70;;;;;;5110758;28;19908;-77
2023/11/17 02:54:08;;;;;;;;;;;7.50;90.70;;;;;;5110669;28;19908;-76
2023/11/17 02:56:38;;;;;;;;;;;7.40;90.70;;;;;;5110827;28;19911;-77
2023/11/17 02:59:07;;;;;;;;;;;7.40;90.70;;;;;;5110401;28;19998;-77
2023/11/17 03:01:35;;;;;;;;;;;7.30;90.70;;;;;;5110563;28;20379;-77
2023/11/17 03:04:01;;;;;;;;;;;7.20;90.70;;;;;;5110295;28;20304;-76
2023/11/17 03:06:29;;;;;;;;;;;7.20;90.80;;;;;;5110442;28;19919;-77
2023/11/17 03:08:54;;;;;;;;;;;7.20;90.80;;;;;;5110217;28;19924;-77
2023/11/17 03:11:21;;;;;;;;;;;7.10;90.70;;;;;;5110310;28;19967;-77
2023/11/17 03:13:48;;;;;;;;;;;7.10;90.80;;;;;;5110171;28;20028;-77
2023/11/17 03:16:23;;;;;;;;;;;7.10;90.80;;;;;;5110073;28;20260;-77
2023/11/17 03:18:52;;;;;;;;;;;7.00;90.80;;;;;;5109934;28;20408;-77
2023/11/17 03:21:23;;;;;;;;;;;7.00;90.80;;;;;;5110032;28;19912;-77
2023/11/17 03:23:50;;;;;;;;;;;7.00;90.80;;;;;;5110014;28;19922;-76
2023/11/17 03:26:17;;;;;;;;;;;7.00;90.80;;;;;;5110019;28;19989;-77
2023/11/17 03:28:42;;;;;;;;;;;7.00;90.80;;;;;;5109862;28;19912;-77
2023/11/17 03:31:13;;;;;;;;;;;7.00;90.80;;;;;;5109822;28;19915;-77
2023/11/17 03:33:45;;;;;;;;;;;7.00;90.80;;;;;;5109901;28;20265;-77
2023/11/17 03:36:19;;;;;;;;;;;7.00;90.80;;;;;;5109862;28;19908;-77
2023/11/17 03:38:44;;;;;;;;;;;7.00;90.80;;;;;;5109618;28;19947;-76
2023/11/17 03:41:11;;;;;;;;;;;7.00;90.80;;;;;;5110098;28;20395;-77
2023/11/17 03:43:37;;;;;;;;;;;7.00;90.80;;;;;;5108682;28;19918;-77
2023/11/17 03:46:03;;;;;;;;;;;6.90;90.70;;;;;;5109716;28;19915;-77
2023/11/17 03:48:29;;;;;;;;;;;6.90;90.80;;;;;;5109524;28;19912;-77
2023/11/17 03:50:55;;;;;;;;;;;6.90;90.80;;;;;;5109587;28;19912;-77
2023/11/17 03:53:21;;;;;;;;;;;6.90;90.70;;;;;;5109517;28;19998;-77
2023/11/17 03:55:46;;;;;;;;;;;6.80;90.80;;;;;;5109408;28;19908;-77
2023/11/17 03:58:12;;;;;;;;;;;6.80;90.80;;;;;;5091328;28;19919;-77
2023/11/17 04:00:37;;;;;;;;;;;6.80;90.70;;;;;;5109541;28;19916;-76
2023/11/17 04:03:10;;;;;;;;;;;6.80;90.80;;;;;;5085830;27;19913;-75
2023/11/17 04:05:37;;;;;;;;;;;6.80;90.80;;;;;;5085832;28;20382;-75
2023/11/17 04:08:02;;;;;;;;;;;6.80;90.80;;;;;;5085700;28;19916;-75
2023/11/17 04:10:28;;;;;;;;;;;6.80;90.80;;;;;;5085607;28;19923;-74
2023/11/17 04:12:53;;;;;;;;;;;6.80;90.80;;;;;;5084038;28;19966;-75
2023/11/17 04:15:19;;;;;;;;;;;6.80;90.80;;;;;;5084470;28;19913;-75
2023/11/17 04:17:44;;;;;;;;;;;6.80;90.80;;;;;;5085557;28;20027;-75
2023/11/17 04:20:14;;;;;;;;;;;6.80;90.80;;;;;;5085474;28;19920;-75
2023/11/17 04:22:40;;;;;;;;;;;6.70;90.70;;;;;;5085304;28;19916;-75
2023/11/17 04:25:06;;;;;;;;;;;6.70;90.70;;;;;;5084026;28;19908;-74
2023/11/17 04:27:32;;;;;;;;;;;6.70;90.70;;;;;;5084232;28;19916;-75
2023/11/17 04:29:58;;;;;;;;;;;6.70;90.70;;;;;;5067166;28;19985;-76
2023/11/17 04:32:23;;;;;;;;;;;6.70;90.70;;;;;;5067246;28;19920;-76
2023/11/17 04:34:49;;;;;;;;;;;6.70;90.80;;;;;;5084002;28;20049;-76
2023/11/17 04:37:15;;;;;;;;;;;6.70;90.80;;;;;;5085346;28;20380;-76
2023/11/17 04:39:40;;;;;;;;;;;6.70;90.80;;;;;;5085137;28;19924;-76
2023/11/17 04:42:06;;;;;;;;;;;6.70;90.70;;;;;;5083766;28;19913;-76
2023/11/17 04:44:33;;;;;;;;;;;6.70;90.70;;;;;;5083835;28;19916;-76
2023/11/17 04:46:59;;;;;;;;;;;6.70;90.70;;;;;;5085015;28;19923;-76
2023/11/17 04:49:25;;;;;;;;;;;6.70;90.70;;;;;;5083441;28;20174;-76
2023/11/17 04:51:50;;;;;;;;;;;6.70;90.70;;;;;;5083434;28;19916;-76
2023/11/17 04:54:16;;;;;;;;;;;6.60;90.70;;;;;;5084815;28;19913;-76
2023/11/17 04:56:41;;;;;;;;;;;6.60;90.90;;;;;;5084890;28;20003;-76
2023/11/17 04:59:10;;;;;;;;;;;6.60;90.70;;;;;;5084735;28;19908;-76
2023/11/17 05:01:36;;;;;;;;;;;6.60;90.70;;;;;;5090584;28;19970;-76
2023/11/17 05:04:02;;;;;;;;;;;6.50;90.70;;;;;;5103651;28;19927;-76
2023/11/17 05:06:27;;;;;;;;;;;6.50;90.70;;;;;;5104789;28;19912;-76
2023/11/17 05:08:53;;;;;;;;;;;6.50;90.70;;;;;;5103478;28;20345;-76
2023/11/17 05:11:21;;;;;;;;;;;6.40;90.70;;;;;;5103295;28;20432;-76
2023/11/17 05:13:46;;;;;;;;;;;6.40;90.70;;;;;;5095665;28;19976;-76
2023/11/17 05:16:14;;;;;;;;;;;6.40;90.70;;;;;;5091203;28;20003;-76
2023/11/17 05:18:39;;;;;;;;;;;6.40;90.70;;;;;;5089623;28;19912;-76
2023/11/17 05:21:08;;;;;;;;;;;6.40;90.70;;;;;;5091092;28;19912;-76
2023/11/17 05:23:38;;;;;;;;;;;6.30;90.70;;;;;;5089818;28;20304;-76
2023/11/17 05:26:06;;;;;;;;;;;6.30;90.70;;;;;;5091207;28;20292;-76
2023/11/17 05:28:32;;;;;;;;;;;6.30;90.70;;;;;;5089616;28;19939;-76
2023/11/17 05:31:01;;;;;;;;;;;6.30;90.70;;;;;;5090837;28;19948;-76
2023/11/17 05:33:27;;;;;;;;;;;6.30;90.70;;;;;;5091317;28;19908;-76
2023/11/17 05:35:53;;;;;;;;;;;6.30;90.70;;;;;;5090857;28;19916;-77
2023/11/17 05:38:18;;;;;;;;;;;6.30;90.70;;;;;;5090717;28;19912;-76
2023/11/17 05:40:44;;;;;;;;;;;6.30;90.70;;;;;;5089570;28;19912;-76
2023/11/17 05:43:10;;;;;;;;;;;6.30;90.70;;;;;;5089313;28;19919;-76
2023/11/17 05:45:35;;;;;;;;;;;6.30;90.80;;;;;;5090707;28;20386;-76
2023/11/17 05:48:02;;;;;;;;;;;6.30;90.70;;;;;;5090545;28;19934;-76
2023/11/17 05:50:27;;;;;;;;;;;6.30;90.70;;;;;;5090488;28;19909;-76
2023/11/17 05:52:53;;;;;;;;;;;6.30;90.70;;;;;;5090306;28;19920;-76
2023/11/17 05:55:18;;;;;;;;;;;6.30;90.70;;;;;;5089365;28;19912;-76
2023/11/17 05:57:44;;;;;;;;;;;6.30;90.70;;;;;;5088875;28;19912;-76
2023/11/17 06:00:13;;;;;;;;;;;6.20;90.70;;;;;;5090481;28;19912;-76
2023/11/17 06:02:39;;;;;;;;;;;6.30;90.70;;;;;;5090367;28;19924;-76
2023/11/17 06:05:08;;;;;;;;;;;6.20;90.70;;;;;;5090851;28;19913;-76
2023/11/17 06:07:34;;;;;;;;;;;6.20;90.70;;;;;;5088974;28;19916;-76
2023/11/17 06:09:59;;;;;;;;;;;6.20;90.70;;;;;;5090289;28;19965;-76
2023/11/17 06:12:26;;;;;;;;;;;6.20;90.70;;;;;;5071866;28;20085;-76
2023/11/17 06:14:51;;;;;;;;;;;6.20;90.70;;;;;;5088619;28;20121;-76
2023/11/17 06:17:17;;;;;;;;;;;6.20;90.70;;;;;;5089948;28;19924;-76
2023/11/17 06:19:42;;;;;;;;;;;6.20;90.70;;;;;;5088652;28;19916;-76
2023/11/17 06:22:08;;;;;;;;;;;6.20;90.70;;;;;;5089915;28;19920;-76
2023/11/17 06:24:34;;;;;;;;;;;6.20;90.70;;;;;;5088965;28;19912;-76
2023/11/17 06:27:00;;;;;;;;;;;6.10;90.70;;;;;;5089690;28;19918;-76
2023/11/17 06:29:26;;;;;;;;;;;6.10;90.70;;;;;;5089796;28;20374;-76
2023/11/17 06:31:52;;;;;;;;;;;6.10;90.70;;;;;;5089477;28;20390;-76
2023/11/17 06:34:18;;;;;;;;;;;6.10;90.70;;;;;;5088215;28;19912;-76
2023/11/17 06:36:44;;;;;;;;;;;6.10;90.70;;;;;;5089743;28;19955;-77
2023/11/17 06:39:18;;;;;;;;;;;6.10;90.70;;;;;;5089603;28;19951;-77
2023/11/17 06:41:47;;;;;;;;;;;6.10;90.70;;;;;;5089351;28;19908;-76
2023/11/17 06:44:13;;;;;;;;;;;6.10;90.70;;;;;;5089439;28;19912;-76
2023/11/17 06:46:41;;;;;;;;;;;6.10;90.70;;;;;;5089807;28;20257;-73
2023/11/17 06:49:12;;;;;;;;;;;6.10;90.70;;;;;;5089852;28;19930;-74
2023/11/17 06:51:41;;;;;;;;;;;6.10;90.70;;;;;;5088235;28;19916;-73
2023/11/17 06:54:13;;;;;;;;;;;6.10;90.70;;;;;;5089287;28;20320;-77
2023/11/17 06:56:42;;;;;;;;;;;6.10;90.70;;;;;;5089011;28;19953;-76
2023/11/17 06:59:11;;;;;;;;;;;6.10;90.70;;;;;;5090896;28;19963;-76
2023/11/17 07:01:37;;;;;;;;;;;6.10;90.70;;;;;;5088801;28;19969;-76
2023/11/17 07:04:05;;;;;;;;;;;6.00;90.70;;;;;;5089070;28;19912;-76
2023/11/17 07:06:31;;;;;;;;;;;6.10;90.70;;;;;;5089146;28;19908;-77
2023/11/17 07:08:57;;;;;;;;;;;6.10;90.70;;;;;;5088955;28;20002;-76
2023/11/17 07:11:24;;;;;;;;;;;6.00;90.70;;;;;;5087420;28;20429;-77
2023/11/17 07:13:52;;;;;;;;;;;6.00;90.90;;;;;;5088755;28;19912;-77
2023/11/17 07:16:20;;;;;;;;;;;6.00;90.60;;;;;;5087117;28;20303;-76
2023/11/17 07:18:46;;;;;;;;;;;6.00;90.60;;;;;;5087394;28;20257;-77
2023/11/17 07:21:13;;;;;;;;;;;6.00;90.60;;;;;;5088730;28;19930;-77
2023/11/17 07:23:43;;;;;;;;;;;5.90;90.60;;;;;;5088622;28;20003;-76
2023/11/17 07:26:18;;;;;;;;;;;5.90;90.70;;;;;;5088694;28;19912;-77
2023/11/17 07:28:47;;;;;;;;;;;5.90;90.70;;;;;;5088491;28;20335;-76
2023/11/17 07:31:13;;;;;;;;;;;5.90;90.70;;;;;;5088161;28;20349;-76
2023/11/17 07:33:39;;;;;;;;;;;5.90;90.70;;;;;;5088514;28;19961;-76
2023/11/17 07:36:05;;;;;;;;;;;5.90;90.70;;;;;;5070676;28;20015;-78
2023/11/17 07:38:31;;;;;;;;;;;5.90;90.70;;;;;;5086483;28;20351;-78
2023/11/17 07:40:57;;;;;;;;;;;5.90;90.70;;;;;;5087962;28;20205;-78
2023/11/17 07:43:22;;;;;;;;;;;5.90;90.70;;;;;;5087985;28;20257;-77
2023/11/17 07:45:48;;;;;;;;;;;5.90;90.70;;;;;;5086639;28;20014;-78
2023/11/17 07:48:13;;;;;;;;;;;5.90;90.70;;;;;;5086905;28;20115;-79
2023/11/17 07:50:41;;;;;;;;;;;5.90;90.70;;;;;;5088010;28;19912;-78
2023/11/17 07:53:08;;;;;;;;;;;5.90;90.70;;;;;;5087978;28;19919;-78
2023/11/17 07:55:34;;;;;;;;;;;5.90;90.90;;;;;;5087808;28;19918;-75
2023/11/17 07:58:01;;;;;;;;;;;5.90;90.70;;;;;;5087512;28;19913;-78
2023/11/17 08:00:31;;;;;;;;;;;5.90;90.70;;;;;;5087595;28;20375;-78
2023/11/17 08:02:56;;;;;;;;;;;6.00;90.70;;;;;;5086213;28;19924;-79
2023/11/17 08:05:23;;;;;;;;;;;6.00;90.70;;;;;;5086551;28;20275;-79
2023/11/17 08:07:49;;;;;;;;;;;6.00;90.70;;;;;;5086387;28;19916;-78
2023/11/17 08:10:15;;;;;;;;;;;6.00;90.90;;;;;;5087675;28;19919;-78
2023/11/17 08:12:41;;;;;;;;;;;6.00;90.70;;;;;;5086095;28;20014;-78
2023/11/17 08:15:07;;;;;;;;;;;6.00;90.70;;;;;;5086183;28;19912;-78
2023/11/17 08:17:33;;;;;;;;;;;6.00;90.70;;;;;;5087840;28;19912;-77
2023/11/17 08:19:59;;;;;;;;;;;6.00;90.70;;;;;;5087962;28;19958;-77
2023/11/17 08:22:29;;;;;;;;;;;6.00;90.70;;;;;;5086216;28;20424;-77
2023/11/17 08:24:56;;;;;;;;;;;6.00;90.70;;;;;;5086344;28;19931;-77
2023/11/17 08:27:21;;;;;;;;;;;6.00;90.70;;;;;;5086595;28;19916;-78
2023/11/17 08:29:47;;;;;;;;;;;6.10;90.80;;;;;;5087474;28;19912;-77
2023/11/17 08:32:12;;;;;;;;;;;6.10;90.80;;;;;;5085892;28;19916;-77
2023/11/17 08:34:38;;;;;;;;;;;6.20;90.80;;;;;;5086004;28;19967;-77
2023/11/17 08:37:05;;;;;;;;;;;6.20;90.80;;;;;;5087785;28;19913;-77
2023/11/17 08:39:31;;;;;;;;;;;6.30;90.80;;;;;;5087154;28;19912;-77
2023/11/17 08:41:56;;;;;;;;;;;6.40;90.90;;;;;;5087491;28;20286;-77
2023/11/17 08:44:22;;;;;;;;;;;6.40;90.90;;;;;;5085941;28;19968;-65
2023/11/17 08:46:51;;;;;;;;;;;6.50;90.90;;;;;;5087352;28;20081;-77
2023/11/17 08:49:16;;;;;;;;;;;6.60;90.90;;;;;;5089998;28;19989;-77
2023/11/17 08:51:42;;;;;;;;;;;6.60;90.90;;;;;;5090620;28;20398;-76
2023/11/17 08:54:08;;;;;;;;;;;6.70;90.90;;;;;;5090777;28;19912;-76
2023/11/17 08:56:35;;;;;;;;;;;6.80;90.90;;;;;;5090825;28;19913;-77
2023/11/17 08:59:02;;;;;;;;;;;7.10;91.40;;;;;;5089463;28;19965;-79
2023/11/17 09:01:28;;;;;;;;;;;7.60;91.90;;;;;;5089336;28;20273;-79
2023/11/17 09:03:53;;;;;;;;;;;8.40;92.10;;;;;;5087790;28;19915;-79
2023/11/17 09:06:19;;;;;;;;;;;9.10;92.10;;;;;;5078498;28;19913;-80
2023/11/17 09:08:46;;;;;;;;;;;9.70;91.90;;;;;;5080931;28;19916;-80
2023/11/17 09:11:11;;;;;;;;;;;10.30;91.80;;;;;;5081335;28;19912;-80
2023/11/17 09:13:37;;;;;;;;;;;10.80;91.70;;;;;;5080910;28;19922;-80
2023/11/17 09:16:03;;;;;;;;;;;11.30;91.70;;;;;;5077871;28;20299;-78
2023/11/17 09:18:31;;;;;;;;;;;11.70;91.60;;;;;;5078407;28;19931;-80
2023/11/17 09:20:57;;;;;;;;;;;11.70;91.00;;;;;;5081197;28;19974;-82
2023/11/17 09:23:23;;;;;;;;;;;11.90;91.40;;;;;;5079039;28;20361;-81
2023/11/17 09:25:49;;;;;;;;;;;12.20;91.50;;;;;;5078928;28;20428;-80
2023/11/17 09:28:16;;;;;;;;;;;12.50;91.60;;;;;;5078829;28;20268;-80
2023/11/17 09:30:42;;;;;;;;;;;12.90;91.60;;;;;;5080720;28;20379;-78
2023/11/17 09:33:08;;;;;;;;;;;13.10;91.50;;;;;;5077941;28;20383;-81
2023/11/17 09:35:36;;;;;;;;;;;13.40;91.50;;;;;;5077543;28;19961;-80
2023/11/17 09:38:04;;;;;;;;;;;13.50;91.40;;;;;;5079071;28;19916;-80
2023/11/17 09:40:33;;;;;;;;;;;13.70;91.50;;;;;;5080054;28;19985;-81
2023/11/17 09:42:59;;;;;;;;;;;14.00;91.60;;;;;;5080271;28;19911;-79
2023/11/17 09:45:30;;;;;;;;;;;14.20;91.70;;;;;;5078195;28;19966;-78
2023/11/17 09:47:57;;;;;;;;;;;14.50;91.80;;;;;;5078106;28;20198;-78
2023/11/17 09:50:29;;;;;;;;;;;14.80;91.90;;;;;;5078542;28;19948;-81
2023/11/17 09:52:55;;;;;;;;;;;15.20;91.90;;;;;;5080888;28;19916;-80
2023/11/17 09:55:22;;;;;;;;;;;15.50;91.80;;;;;;5078827;28;19955;-80
2023/11/17 09:57:53;;;;;;;;;;;15.60;91.70;;;;;;5079423;28;20331;-77
2023/11/17 10:00:20;;;;;;;;;;;15.70;91.60;;;;;;5071796;28;19919;-77
2023/11/17 10:02:54;;;;;;;;;;;15.70;91.60;;;;;;5068845;28;19966;-79
2023/11/17 10:05:20;;;;;;;;;;;15.70;91.50;;;;;;5070097;28;19958;-78
2023/11/17 10:07:55;;;;;;;;;;;15.40;91.30;;;;;;5072673;28;19913;-77
2023/11/17 10:10:22;;;;;;;;;;;15.20;91.40;;;;;;5072330;28;19924;-77
2023/11/17 10:12:48;;;;;;;;;;;15.20;91.60;;;;;;5070545;28;20014;-78
2023/11/17 10:15:15;;;;;;;;;;;15.20;91.70;;;;;;5085806;28;19939;-77
2023/11/17 10:17:42;;;;;;;;;;;15.30;91.90;;;;;;5081764;28;19954;-77
2023/11/17 10:20:17;;;;;;;;;;;15.60;91.90;;;;;;5081165;28;19912;-74
2023/11/17 10:22:50;;;;;;;;;;;15.70;92.00;;;;;;5077499;28;19958;-77
2023/11/17 10:25:18;;;;;;;;;;;15.90;91.90;;;;;;5076226;28;19912;-77
2023/11/17 10:27:49;;;;;;;;;;;16.10;92.00;;;;;;5081865;28;19934;-78
2023/11/17 10:30:19;;;;;;;;;;;16.20;91.90;;;;;;5079140;28;19916;-77
2023/11/17 10:32:55;;;;;;;;;;;16.30;92.00;;;;;;5071441;28;20296;-76
2023/11/17 10:35:31;;;;;;;;;;;16.40;92.10;;;;;;5085850;28;19908;-76
2023/11/17 10:37:58;;;;;;;;;;;16.60;92.10;;;;;;5080423;28;20279;-76
2023/11/17 10:40:24;;;;;;;;;;;16.70;92.20;;;;;;5073329;28;20380;-75
2023/11/17 10:43:09;;;;;;;;;;;16.70;92.00;;;;;;5081262;28;21402;-75
2023/11/17 10:45:36;;;;;;;;;;;16.70;91.90;;;;;;5089301;28;19908;-76
2023/11/17 10:48:03;;;;;;;;;;;16.70;91.90;;;;;;5089985;28;19930;-76
2023/11/17 10:50:29;;;;;;;;;;;16.60;92.00;;;;;;5071947;28;19995;-77
2023/11/17 10:53:12;;;;;;;;;;;16.70;92.20;;;;;;5089883;28;20018;-77
2023/11/17 10:55:37;;;;;;;;;;;16.80;92.20;;;;;;5079688;28;19984;-79
2023/11/17 10:58:04;;;;;;;;;;;16.70;92.00;;;;;;5078436;28;19916;-77
2023/11/17 11:00:33;;;;;;;;;;;16.70;92.00;;;;;;5071218;28;20380;-80
2023/11/17 11:03:00;;;;;;;;;;;16.70;92.00;;;;;;5070802;28;20296;-77
2023/11/17 11:05:27;;;;;;;;;;;16.70;92.10;;;;;;5069066;28;19915;-75
2023/11/17 11:07:55;;;;;;;;;;;16.60;91.90;;;;;;5066699;28;19947;-74
2023/11/17 11:10:21;;;;;;;;;;;16.50;91.80;;;;;;5068952;28;19921;-76
2023/11/17 11:12:51;;;;;;;;;;;16.30;91.90;;;;;;5068683;28;20015;-76
2023/11/17 11:15:17;;;;;;;;;;;16.40;92.20;;;;;;5068018;28;19957;-76
2023/11/17 11:17:56;;;;;;;;;;;16.50;92.20;;;;;;5068706;28;19909;-63
2023/11/17 11:20:21;;;;;;;;;;;16.50;92.10;;;;;;5068541;28;20364;-74
2023/11/17 11:22:50;;;;;;;;;;;16.40;91.90;;;;;;5068679;28;19954;-76
2023/11/17 11:25:17;;;;;;;;;;;16.30;91.90;;;;;;5068788;28;20419;-77
2023/11/17 11:27:44;;;;;;;;;;;16.30;92.00;;;;;;5068536;28;19993;-77
2023/11/17 11:30:10;;;;;;;;;;;16.30;92.10;;;;;;5068749;28;19915;-78
2023/11/17 11:32:35;;;;;;;;;;;16.20;92.30;;;;;;5068492;28;20368;-77
2023/11/17 11:35:03;;;;;;;;;;;16.20;92.00;;;;;;5067278;28;19916;-77
2023/11/17 11:37:32;;;;;;;;;;;15.90;91.80;;;;;;5068650;28;19917;-77
2023/11/17 11:39:58;;;;;;;;;;;15.70;91.80;;;;;;5069458;28;19920;-77
2023/11/17 11:42:24;;;;;;;;;;;15.60;91.80;;;;;;5069496;28;19969;-75
2023/11/17 11:44:51;;;;;;;;;;;15.40;91.80;;;;;;5068472;28;19912;-74
2023/11/17 11:47:21;;;;;;;;;;;15.20;91.80;;;;;;5069092;28;19916;-80
2023/11/17 11:49:49;;;;;;;;;;;15.10;91.70;;;;;;5067230;28;19961;-75
2023/11/17 11:52:25;;;;;;;;;;;14.90;91.60;;;;;;5068166;28;19962;-65
2023/11/17 11:54:51;;;;;;;;;;;14.60;91.50;;;;;;5068413;28;19913;-77
2023/11/17 11:57:31;;;;;;;;;;;14.40;91.50;;;;;;5068044;28;19909;-73
2023/11/17 12:00:06;;;;;;;;;;;14.10;91.40;;;;;;5068181;28;20260;-75
2023/11/17 12:02:33;;;;;;;;;;;13.90;91.50;;;;;;5073155;28;19924;-75
2023/11/17 12:05:08;;;;;;;;;;;13.80;91.60;;;;;;5074214;28;20011;-75
2023/11/17 12:07:36;;;;;;;;;;;13.60;91.50;;;;;;5077754;28;20328;-74
2023/11/17 12:10:04;;;;;;;;;;;13.40;91.60;;;;;;5081168;28;20394;-73
2023/11/17 12:12:30;;;;;;;;;;;13.30;91.60;;;;;;5079085;28;20429;-72
2023/11/17 12:14:57;;;;;;;;;;;13.20;91.30;;;;;;5073324;28;19991;-74
2023/11/17 12:17:30;;;;;;;;;;;13.10;91.30;;;;;;5075911;28;20003;-72
2023/11/17 12:19:56;;;;;;;;;;;13.00;91.40;;;;;;5076185;28;19913;-73
2023/11/17 12:22:22;;;;;;;;;;;12.90;91.40;;;;;;5078792;28;19976;-73
2023/11/17 12:24:49;;;;;;;;;;;12.80;91.40;;;;;;5074115;28;19912;-75
2023/11/17 12:27:17;;;;;;;;;;;12.80;91.30;;;;;;5072354;28;19913;-74
2023/11/17 12:29:42;;;;;;;;;;;12.70;91.30;;;;;;5072627;28;19948;-77
2023/11/17 12:32:08;;;;;;;;;;;12.60;91.20;;;;;;5072198;28;20015;-75
2023/11/17 12:34:42;;;;;;;;;;;12.50;91.30;;;;;;5070886;28;20329;-78
2023/11/17 12:37:07;;;;;;;;;;;12.50;91.20;;;;;;5072488;28;19912;-76
2023/11/17 12:39:40;;;;;;;;;;;12.40;91.20;;;;;;5070494;28;19923;-72
2023/11/17 12:42:14;;;;;;;;;;;12.40;91.30;;;;;;5071760;28;19926;-72
2023/11/17 12:44:40;;;;;;;;;;;12.30;91.20;;;;;;5072787;28;19915;-76
2023/11/17 12:47:08;;;;;;;;;;;12.30;91.20;;;;;;5071066;28;19995;-75
2023/11/17 12:49:33;;;;;;;;;;;12.30;91.20;;;;;;5071679;28;19915;-73
2023/11/17 12:52:07;;;;;;;;;;;12.20;91.20;;;;;;5071266;28;20359;-73
2023/11/17 12:54:32;;;;;;;;;;;12.20;91.30;;;;;;5070328;28;19924;-72
2023/11/17 12:56:59;;;;;;;;;;;12.20;91.30;;;;;;5070970;28;20416;-72
2023/11/17 12:59:24;;;;;;;;;;;12.30;91.30;;;;;;5072457;28;19958;-73
2023/11/17 13:01:50;;;;;;;;;;;12.20;91.20;;;;;;5090113;28;19963;-74
2023/11/17 13:04:16;;;;;;;;;;;12.20;91.20;;;;;;5091173;28;19913;-72
2023/11/17 13:06:42;;;;;;;;;;;12.20;91.20;;;;;;5089970;28;19978;-72
2023/11/17 13:09:09;;;;;;;;;;;12.20;91.20;;;;;;5091409;28;19951;-71
2023/11/17 13:11:46;;;;;;;;;;;12.20;91.20;;;;;;5089923;28;19990;-74
2023/11/17 13:14:21;;;;;;;;;;;12.20;91.20;;;;;;5091231;28;19934;-72
2023/11/17 13:16:47;;;;;;;;;;;12.20;91.20;;;;;;5091186;28;20387;-70
2023/11/17 13:19:13;;;;;;;;;;;12.20;91.20;;;;;;5090720;28;19932;-71
2023/11/17 13:21:39;;;;;;;;;;;12.20;91.20;;;;;;5090922;28;19919;-74
2023/11/17 13:24:06;;;;;;;;;;;12.20;91.20;;;;;;5091226;28;19916;-71
2023/11/17 13:26:32;;;;;;;;;;;12.20;91.30;;;;;;5083780;28;19940;-71
2023/11/17 13:28:58;;;;;;;;;;;12.30;91.30;;;;;;5082508;28;19920;-71
2023/11/17 13:31:24;;;;;;;;;;;12.30;91.20;;;;;;5080453;28;19965;-72
2023/11/17 13:33:52;;;;;;;;;;;12.20;91.20;;;;;;5079198;28;19999;-72
2023/11/17 13:36:20;;;;;;;;;;;12.20;91.30;;;;;;5073908;28;20477;-72
2023/11/17 13:38:59;;;;;;;;;;;12.10;91.30;;;;;;5069250;28;19913;-71
2023/11/17 13:41:29;;;;;;;;;;;12.10;91.40;;;;;;5069286;28;20354;-76
2023/11/17 13:43:58;;;;;;;;;;;12.00;91.30;;;;;;5070811;28;19913;-71
2023/11/17 13:46:30;;;;;;;;;;;12.00;91.40;;;;;;5068441;28;20355;-73
2023/11/17 13:49:03;;;;;;;;;;;12.00;91.40;;;;;;5068263;28;19913;-70
2023/11/17 13:51:32;;;;;;;;;;;12.10;91.40;;;;;;5070005;28;19919;-74
2023/11/17 13:53:58;;;;;;;;;;;12.10;91.30;;;;;;5070197;28;19917;-72
2023/11/17 13:56:24;;;;;;;;;;;12.10;91.40;;;;;;5070476;28;19958;-72
2023/11/17 13:58:49;;;;;;;;;;;12.10;91.60;;;;;;5068914;28;19924;-74
2023/11/17 14:01:16;;;;;;;;;;;12.10;91.30;;;;;;5070139;28;19931;-74
2023/11/17 14:03:42;;;;;;;;;;;12.10;91.40;;;;;;5070221;28;19920;-72
2023/11/17 14:06:09;;;;;;;;;;;12.10;91.30;;;;;;5070138;28;20288;-73
2023/11/17 14:08:34;;;;;;;;;;;12.10;91.30;;;;;;5070107;28;19915;-72
2023/11/17 14:11:00;;;;;;;;;;;12.10;91.30;;;;;;5068467;28;19913;-75
2023/11/17 14:13:25;;;;;;;;;;;12.10;91.20;;;;;;5068591;28;19920;-73
2023/11/17 14:15:51;;;;;;;;;;;12.10;91.30;;;;;;5069502;28;20375;-71
2023/11/17 14:18:17;;;;;;;;;;;12.10;91.30;;;;;;5069728;28;19972;-73
2023/11/17 14:20:43;;;;;;;;;;;12.00;91.30;;;;;;5069506;28;19920;-72
2023/11/17 14:23:10;;;;;;;;;;;12.00;91.50;;;;;;5069452;28;19916;-70
2023/11/17 14:25:36;;;;;;;;;;;12.00;91.30;;;;;;5068960;28;19916;-72
2023/11/17 14:28:02;;;;;;;;;;;12.00;91.30;;;;;;5067978;28;19921;-76